Princeton's Hourly Summary for Wednesday, March 15, 2017
Hour Temp
(f)
RH
(%)
Solar Rad.
(MJ/m2)
Rainfall
(in)
Wind
(mph)
3/15/2017 12:00 AM 48 52 0 0 3.63
3/15/2017 1:00 AM 47 52 0 0 5
3/15/2017 2:00 AM 45 54 0 0 4.97
3/15/2017 3:00 AM 44 57 0 0 4.42
3/15/2017 4:00 AM 44 57 0 0 4.84
3/15/2017 5:00 AM 44 59 0 0 5.02
3/15/2017 6:00 AM 43 61 0 0 4.64
3/15/2017 7:00 AM 43 64 0 0 4.25
3/15/2017 8:00 AM 43 65 0.01 0 3.82
3/15/2017 9:00 AM 42 66 0.18 0 4.45
3/15/2017 10:00 AM 43 65 0.6 0 5.1
3/15/2017 11:00 AM 44 62 1.19 0 4.98
3/15/2017 12:00 PM 47 57 1.92 0 5.11
3/15/2017 1:00 PM 50 52 2.83 0 5.31
3/15/2017 2:00 PM 54 46 2.96 0 4.93
3/15/2017 3:00 PM 57 41 2.47 0 4.96
3/15/2017 4:00 PM 59 41 2.46 0 5.42
3/15/2017 5:00 PM 60 40 1.9 0 5.35
3/15/2017 6:00 PM 60 40 1.24 0 5.84
3/15/2017 7:00 PM 59 44 0.21 0 4.13
3/15/2017 8:00 PM 57 47 0.04 0 3.37
3/15/2017 9:00 PM 55 54 0 0 3.3
3/15/2017 10:00 PM 53 55 0 0 3.93
3/15/2017 11:00 PM 52 58 0 0 4.11
Data Summary 49 53 18.01 0.00 4.62